sensor_id;sensor_type;location;lat;lon;timestamp;temperature;humidity
25753;DHT22;13600;50.816;4.416;2023-11-21T00:00:14;12.00;99.90
25753;DHT22;13600;50.816;4.416;2023-11-21T00:02:41;11.90;99.90
25753;DHT22;13600;50.816;4.416;2023-11-21T00:05:08;11.80;99.90
25753;DHT22;13600;50.816;4.416;2023-11-21T00:07:35;11.80;99.90
25753;DHT22;13600;50.816;4.416;2023-11-21T00:10:01;11.70;99.90
25753;DHT22;13600;50.816;4.416;2023-11-21T00:12:28;11.70;99.90
25753;DHT22;13600;50.816;4.416;2023-11-21T00:14:55;11.80;99.90
25753;DHT22;13600;50.816;4.416;2023-11-21T00:17:21;11.80;99.90
25753;DHT22;13600;50.816;4.416;2023-11-21T00:19:47;11.80;99.90
25753;DHT22;13600;50.816;4.416;2023-11-21T00:22:12;11.80;99.90
25753;DHT22;13600;50.816;4.416;2023-11-21T00:24:38;11.80;99.90
25753;DHT22;13600;50.816;4.416;2023-11-21T00:27:04;11.80;99.90
25753;DHT22;13600;50.816;4.416;2023-11-21T00:29:29;11.80;99.90
25753;DHT22;13600;50.816;4.416;2023-11-21T00:31:55;11.80;99.90
25753;DHT22;13600;50.816;4.416;2023-11-21T00:34:21;11.70;99.90
25753;DHT22;13600;50.816;4.416;2023-11-21T00:36:46;11.70;99.90
25753;DHT22;13600;50.816;4.416;2023-11-21T00:39:12;11.70;99.90
25753;DHT22;13600;50.816;4.416;2023-11-21T00:41:38;11.50;99.90
25753;DHT22;13600;50.816;4.416;2023-11-21T00:44:03;11.50;99.90
25753;DHT22;13600;50.816;4.416;2023-11-21T00:46:29;11.50;99.90
25753;DHT22;13600;50.816;4.416;2023-11-21T00:48:55;11.50;99.90
25753;DHT22;13600;50.816;4.416;2023-11-21T00:51:21;11.50;99.90
25753;DHT22;13600;50.816;4.416;2023-11-21T00:53:47;11.50;99.90
25753;DHT22;13600;50.816;4.416;2023-11-21T00:56:13;11.50;99.90
25753;DHT22;13600;50.816;4.416;2023-11-21T00:58:39;11.30;99.90
25753;DHT22;13600;50.816;4.416;2023-11-21T01:01:09;11.20;99.90
25753;DHT22;13600;50.816;4.416;2023-11-21T01:03:35;11.20;99.90
25753;DHT22;13600;50.816;4.416;2023-11-21T01:06:00;11.20;99.90
25753;DHT22;13600;50.816;4.416;2023-11-21T01:08:26;11.30;99.90
25753;DHT22;13600;50.816;4.416;2023-11-21T01:10:52;11.30;99.90
25753;DHT22;13600;50.816;4.416;2023-11-21T01:13:18;11.30;99.90
25753;DHT22;13600;50.816;4.416;2023-11-21T01:15:43;11.30;99.90
25753;DHT22;13600;50.816;4.416;2023-11-21T01:18:09;11.30;99.90
25753;DHT22;13600;50.816;4.416;2023-11-21T01:20:35;11.20;99.90
25753;DHT22;13600;50.816;4.416;2023-11-21T01:23:00;11.30;99.90
25753;DHT22;13600;50.816;4.416;2023-11-21T01:25:26;11.40;99.90
25753;DHT22;13600;50.816;4.416;2023-11-21T01:27:52;11.40;99.90
25753;DHT22;13600;50.816;4.416;2023-11-21T01:30:18;11.50;99.90
25753;DHT22;13600;50.816;4.416;2023-11-21T01:32:44;11.40;99.90
25753;DHT22;13600;50.816;4.416;2023-11-21T01:35:10;11.50;99.90
25753;DHT22;13600;50.816;4.416;2023-11-21T01:37:37;11.40;99.90
25753;DHT22;13600;50.816;4.416;2023-11-21T01:40:03;11.40;99.90
25753;DHT22;13600;50.816;4.416;2023-11-21T01:42:35;11.40;99.90
25753;DHT22;13600;50.816;4.416;2023-11-21T01:45:01;11.50;99.90
25753;DHT22;13600;50.816;4.416;2023-11-21T01:47:31;11.50;99.90
25753;DHT22;13600;50.816;4.416;2023-11-21T01:49:57;11.60;99.90
25753;DHT22;13600;50.816;4.416;2023-11-21T01:52:23;11.50;99.90
25753;DHT22;13600;50.816;4.416;2023-11-21T01:54:50;11.40;99.90
25753;DHT22;13600;50.816;4.416;2023-11-21T01:57:15;11.40;99.90
25753;DHT22;13600;50.816;4.416;2023-11-21T01:59:42;11.50;99.90
25753;DHT22;13600;50.816;4.416;2023-11-21T02:02:09;11.50;99.90
25753;DHT22;13600;50.816;4.416;2023-11-21T02:04:35;11.50;99.90
25753;DHT22;13600;50.816;4.416;2023-11-21T02:07:03;11.50;99.90
25753;DHT22;13600;50.816;4.416;2023-11-21T02:09:31;11.60;99.90
25753;DHT22;13600;50.816;4.416;2023-11-21T02:12:00;11.60;99.90
25753;DHT22;13600;50.816;4.416;2023-11-21T02:14:26;11.60;99.90
25753;DHT22;13600;50.816;4.416;2023-11-21T02:16:54;11.60;99.90
25753;DHT22;13600;50.816;4.416;2023-11-21T02:19:22;11.70;99.90
25753;DHT22;13600;50.816;4.416;2023-11-21T02:21:52;11.60;99.90
25753;DHT22;13600;50.816;4.416;2023-11-21T02:24:23;11.60;99.90
25753;DHT22;13600;50.816;4.416;2023-11-21T02:26:49;11.60;99.90
25753;DHT22;13600;50.816;4.416;2023-11-21T02:29:21;11.60;99.90
25753;DHT22;13600;50.816;4.416;2023-11-21T02:31:54;11.60;99.90
25753;DHT22;13600;50.816;4.416;2023-11-21T02:34:21;11.70;99.90
25753;DHT22;13600;50.816;4.416;2023-11-21T02:36:48;11.70;99.90
25753;DHT22;13600;50.816;4.416;2023-11-21T02:39:17;11.70;99.90
25753;DHT22;13600;50.816;4.416;2023-11-21T02:41:43;11.70;99.90
25753;DHT22;13600;50.816;4.416;2023-11-21T02:44:09;11.70;99.90
25753;DHT22;13600;50.816;4.416;2023-11-21T02:46:36;11.60;99.90
25753;DHT22;13600;50.816;4.416;2023-11-21T02:49:05;11.60;99.90
25753;DHT22;13600;50.816;4.416;2023-11-21T02:51:36;11.50;99.90
25753;DHT22;13600;50.816;4.416;2023-11-21T02:54:05;11.60;99.90
25753;DHT22;13600;50.816;4.416;2023-11-21T02:56:32;11.60;99.90
25753;DHT22;13600;50.816;4.416;2023-11-21T02:58:59;11.60;99.90
25753;DHT22;13600;50.816;4.416;2023-11-21T03:01:26;11.50;99.90
25753;DHT22;13600;50.816;4.416;2023-11-21T03:03:52;11.50;99.90
25753;DHT22;13600;50.816;4.416;2023-11-21T03:06:18;11.50;99.90
25753;DHT22;13600;50.816;4.416;2023-11-21T03:08:44;11.50;99.90
25753;DHT22;13600;50.816;4.416;2023-11-21T03:11:10;11.50;99.90
25753;DHT22;13600;50.816;4.416;2023-11-21T03:13:35;11.50;99.90
25753;DHT22;13600;50.816;4.416;2023-11-21T03:16:01;11.60;99.90
25753;DHT22;13600;50.816;4.416;2023-11-21T03:18:27;11.60;99.90
25753;DHT22;13600;50.816;4.416;2023-11-21T03:20:54;11.70;99.90
25753;DHT22;13600;50.816;4.416;2023-11-21T03:23:20;11.70;99.90
25753;DHT22;13600;50.816;4.416;2023-11-21T03:25:46;11.70;99.90
25753;DHT22;13600;50.816;4.416;2023-11-21T03:28:11;11.70;99.90
25753;DHT22;13600;50.816;4.416;2023-11-21T03:30:37;11.70;99.90
25753;DHT22;13600;50.816;4.416;2023-11-21T03:33:03;11.70;99.90
25753;DHT22;13600;50.816;4.416;2023-11-21T03:35:30;11.80;99.90
25753;DHT22;13600;50.816;4.416;2023-11-21T03:37:55;11.80;99.90
25753;DHT22;13600;50.816;4.416;2023-11-21T03:40:21;11.60;99.90
25753;DHT22;13600;50.816;4.416;2023-11-21T03:42:47;11.70;99.90
25753;DHT22;13600;50.816;4.416;2023-11-21T03:45:13;11.70;99.90
25753;DHT22;13600;50.816;4.416;2023-11-21T03:47:43;11.70;99.90
25753;DHT22;13600;50.816;4.416;2023-11-21T03:50:09;11.80;99.90
25753;DHT22;13600;50.816;4.416;2023-11-21T03:52:35;11.70;99.90
25753;DHT22;13600;50.816;4.416;2023-11-21T03:55:01;11.70;99.90
25753;DHT22;13600;50.816;4.416;2023-11-21T03:57:27;11.70;99.90
25753;DHT22;13600;50.816;4.416;2023-11-21T03:59:55;11.70;99.90
25753;DHT22;13600;50.816;4.416;2023-11-21T04:02:21;11.70;99.90
25753;DHT22;13600;50.816;4.416;2023-11-21T04:04:46;11.70;99.90
25753;DHT22;13600;50.816;4.416;2023-11-21T04:07:13;11.60;99.90
25753;DHT22;13600;50.816;4.416;2023-11-21T04:09:39;11.70;99.90
25753;DHT22;13600;50.816;4.416;2023-11-21T04:12:07;11.70;99.90
25753;DHT22;13600;50.816;4.416;2023-11-21T04:14:34;11.70;99.90
25753;DHT22;13600;50.816;4.416;2023-11-21T04:17:00;11.60;99.90
25753;DHT22;13600;50.816;4.416;2023-11-21T04:19:25;11.60;99.90
25753;DHT22;13600;50.816;4.416;2023-11-21T04:21:51;11.60;99.90
25753;DHT22;13600;50.816;4.416;2023-11-21T04:24:17;11.60;99.90
25753;DHT22;13600;50.816;4.416;2023-11-21T04:26:43;11.60;99.90
25753;DHT22;13600;50.816;4.416;2023-11-21T04:29:09;11.60;99.90
25753;DHT22;13600;50.816;4.416;2023-11-21T04:31:35;11.70;99.90
25753;DHT22;13600;50.816;4.416;2023-11-21T04:34:00;11.70;99.90
25753;DHT22;13600;50.816;4.416;2023-11-21T04:36:26;11.70;99.90
25753;DHT22;13600;50.816;4.416;2023-11-21T04:38:52;11.60;99.90
25753;DHT22;13600;50.816;4.416;2023-11-21T04:41:17;11.60;99.90
25753;DHT22;13600;50.816;4.416;2023-11-21T04:43:43;11.60;99.90
25753;DHT22;13600;50.816;4.416;2023-11-21T04:46:09;11.60;99.90
25753;DHT22;13600;50.816;4.416;2023-11-21T04:48:34;11.60;99.90
25753;DHT22;13600;50.816;4.416;2023-11-21T04:51:00;11.70;99.90
25753;DHT22;13600;50.816;4.416;2023-11-21T04:53:26;11.80;99.90
25753;DHT22;13600;50.816;4.416;2023-11-21T04:55:51;11.80;99.90
25753;DHT22;13600;50.816;4.416;2023-11-21T04:58:17;11.80;99.90
25753;DHT22;13600;50.816;4.416;2023-11-21T05:00:44;11.90;99.90
25753;DHT22;13600;50.816;4.416;2023-11-21T05:03:10;11.90;99.90
25753;DHT22;13600;50.816;4.416;2023-11-21T05:05:36;11.80;99.90
25753;DHT22;13600;50.816;4.416;2023-11-21T05:08:01;11.80;99.90
25753;DHT22;13600;50.816;4.416;2023-11-21T05:10:28;11.80;99.90
25753;DHT22;13600;50.816;4.416;2023-11-21T05:12:55;11.80;99.90
25753;DHT22;13600;50.816;4.416;2023-11-21T05:15:21;11.70;99.90
25753;DHT22;13600;50.816;4.416;2023-11-21T05:17:47;11.70;99.90
25753;DHT22;13600;50.816;4.416;2023-11-21T05:20:15;11.80;99.90
25753;DHT22;13600;50.816;4.416;2023-11-21T05:22:47;11.80;99.90
25753;DHT22;13600;50.816;4.416;2023-11-21T05:25:16;11.80;99.90
25753;DHT22;13600;50.816;4.416;2023-11-21T05:27:44;11.80;99.90
25753;DHT22;13600;50.816;4.416;2023-11-21T05:30:11;11.70;99.90
25753;DHT22;13600;50.816;4.416;2023-11-21T05:32:38;11.70;99.90
25753;DHT22;13600;50.816;4.416;2023-11-21T05:35:04;11.80;99.90
25753;DHT22;13600;50.816;4.416;2023-11-21T05:37:38;11.80;99.90
25753;DHT22;13600;50.816;4.416;2023-11-21T05:40:08;11.90;99.90
25753;DHT22;13600;50.816;4.416;2023-11-21T05:42:35;12.00;99.90
25753;DHT22;13600;50.816;4.416;2023-11-21T05:45:01;12.00;99.90
25753;DHT22;13600;50.816;4.416;2023-11-21T05:47:37;11.90;99.90
25753;DHT22;13600;50.816;4.416;2023-11-21T05:50:05;11.90;99.90
25753;DHT22;13600;50.816;4.416;2023-11-21T05:52:31;11.80;99.90
25753;DHT22;13600;50.816;4.416;2023-11-21T05:54:58;11.80;99.90
25753;DHT22;13600;50.816;4.416;2023-11-21T05:57:23;12.00;99.90
25753;DHT22;13600;50.816;4.416;2023-11-21T05:59:49;12.00;99.90
25753;DHT22;13600;50.816;4.416;2023-11-21T06:02:15;12.00;99.90
25753;DHT22;13600;50.816;4.416;2023-11-21T06:04:40;12.00;99.90
25753;DHT22;13600;50.816;4.416;2023-11-21T06:07:06;12.00;99.90
25753;DHT22;13600;50.816;4.416;2023-11-21T06:09:32;12.00;99.90
25753;DHT22;13600;50.816;4.416;2023-11-21T06:11:58;11.80;99.90
25753;DHT22;13600;50.816;4.416;2023-11-21T06:14:24;11.80;99.90
25753;DHT22;13600;50.816;4.416;2023-11-21T06:16:49;11.90;99.90
25753;DHT22;13600;50.816;4.416;2023-11-21T06:19:17;11.90;99.90
25753;DHT22;13600;50.816;4.416;2023-11-21T06:21:46;11.90;99.90
25753;DHT22;13600;50.816;4.416;2023-11-21T06:24:12;11.80;99.90
25753;DHT22;13600;50.816;4.416;2023-11-21T06:26:38;11.90;99.90
25753;DHT22;13600;50.816;4.416;2023-11-21T06:29:05;11.90;99.90
25753;DHT22;13600;50.816;4.416;2023-11-21T06:31:30;11.90;99.90
25753;DHT22;13600;50.816;4.416;2023-11-21T06:33:58;11.90;99.90
25753;DHT22;13600;50.816;4.416;2023-11-21T06:36:25;11.90;99.90
25753;DHT22;13600;50.816;4.416;2023-11-21T06:38:53;11.90;99.90
25753;DHT22;13600;50.816;4.416;2023-11-21T06:41:18;11.90;99.90
25753;DHT22;13600;50.816;4.416;2023-11-21T06:43:44;12.00;99.90
25753;DHT22;13600;50.816;4.416;2023-11-21T06:46:12;12.00;99.90
25753;DHT22;13600;50.816;4.416;2023-11-21T06:48:43;12.00;99.90
25753;DHT22;13600;50.816;4.416;2023-11-21T06:51:08;12.00;99.90
25753;DHT22;13600;50.816;4.416;2023-11-21T06:53:36;12.00;99.90
25753;DHT22;13600;50.816;4.416;2023-11-21T06:56:02;12.10;99.90
25753;DHT22;13600;50.816;4.416;2023-11-21T06:58:28;12.00;99.90
25753;DHT22;13600;50.816;4.416;2023-11-21T07:00:54;12.10;99.90
25753;DHT22;13600;50.816;4.416;2023-11-21T07:03:20;12.00;99.90
25753;DHT22;13600;50.816;4.416;2023-11-21T07:05:45;12.00;99.90
25753;DHT22;13600;50.816;4.416;2023-11-21T07:08:11;12.00;99.90
25753;DHT22;13600;50.816;4.416;2023-11-21T07:10:38;12.10;99.90
25753;DHT22;13600;50.816;4.416;2023-11-21T07:13:04;12.10;99.90
25753;DHT22;13600;50.816;4.416;2023-11-21T07:15:30;12.10;99.90
25753;DHT22;13600;50.816;4.416;2023-11-21T07:17:55;12.10;99.90
25753;DHT22;13600;50.816;4.416;2023-11-21T07:20:21;12.20;99.90
25753;DHT22;13600;50.816;4.416;2023-11-21T07:22:47;12.10;99.90
25753;DHT22;13600;50.816;4.416;2023-11-21T07:25:12;12.10;99.90
25753;DHT22;13600;50.816;4.416;2023-11-21T07:27:38;12.10;99.90
25753;DHT22;13600;50.816;4.416;2023-11-21T07:30:06;12.20;99.90
25753;DHT22;13600;50.816;4.416;2023-11-21T07:32:33;12.20;99.90
25753;DHT22;13600;50.816;4.416;2023-11-21T07:35:00;12.20;99.90
25753;DHT22;13600;50.816;4.416;2023-11-21T07:37:26;12.20;99.90
25753;DHT22;13600;50.816;4.416;2023-11-21T07:39:55;12.20;99.90
25753;DHT22;13600;50.816;4.416;2023-11-21T07:42:24;12.20;99.90
25753;DHT22;13600;50.816;4.416;2023-11-21T07:44:52;12.20;99.90
25753;DHT22;13600;50.816;4.416;2023-11-21T07:47:18;12.30;99.90
25753;DHT22;13600;50.816;4.416;2023-11-21T07:49:43;12.20;99.90
25753;DHT22;13600;50.816;4.416;2023-11-21T07:52:10;12.20;99.90
25753;DHT22;13600;50.816;4.416;2023-11-21T07:54:36;12.20;99.90
25753;DHT22;13600;50.816;4.416;2023-11-21T07:57:02;12.20;99.90
25753;DHT22;13600;50.816;4.416;2023-11-21T07:59:29;12.20;99.90
25753;DHT22;13600;50.816;4.416;2023-11-21T08:01:55;12.30;99.90
25753;DHT22;13600;50.816;4.416;2023-11-21T08:04:20;12.30;99.90
25753;DHT22;13600;50.816;4.416;2023-11-21T08:06:46;12.40;99.90
25753;DHT22;13600;50.816;4.416;2023-11-21T08:09:14;12.40;99.90
25753;DHT22;13600;50.816;4.416;2023-11-21T08:11:42;12.40;99.90
25753;DHT22;13600;50.816;4.416;2023-11-21T08:14:08;12.30;99.90
25753;DHT22;13600;50.816;4.416;2023-11-21T08:16:34;12.40;99.90
25753;DHT22;13600;50.816;4.416;2023-11-21T08:18:59;12.30;99.90
25753;DHT22;13600;50.816;4.416;2023-11-21T08:21:25;12.30;99.90
25753;DHT22;13600;50.816;4.416;2023-11-21T08:23:54;12.40;99.90
25753;DHT22;13600;50.816;4.416;2023-11-21T08:26:21;12.40;99.90
25753;DHT22;13600;50.816;4.416;2023-11-21T08:28:46;12.40;99.90
25753;DHT22;13600;50.816;4.416;2023-11-21T08:31:12;12.40;99.90
25753;DHT22;13600;50.816;4.416;2023-11-21T08:33:38;12.50;99.90
25753;DHT22;13600;50.816;4.416;2023-11-21T08:36:08;12.50;99.90
25753;DHT22;13600;50.816;4.416;2023-11-21T08:38:34;12.50;99.90
25753;DHT22;13600;50.816;4.416;2023-11-21T08:41:06;12.60;99.90
25753;DHT22;13600;50.816;4.416;2023-11-21T08:43:37;12.50;99.90
25753;DHT22;13600;50.816;4.416;2023-11-21T08:46:08;12.60;99.90
25753;DHT22;13600;50.816;4.416;2023-11-21T08:48:37;12.50;99.90
25753;DHT22;13600;50.816;4.416;2023-11-21T08:51:04;12.60;99.90
25753;DHT22;13600;50.816;4.416;2023-11-21T08:53:30;12.60;99.90
25753;DHT22;13600;50.816;4.416;2023-11-21T08:55:57;12.70;99.90
25753;DHT22;13600;50.816;4.416;2023-11-21T08:58:22;12.50;99.90
25753;DHT22;13600;50.816;4.416;2023-11-21T09:00:48;12.50;99.90
25753;DHT22;13600;50.816;4.416;2023-11-21T09:03:14;12.50;99.90
25753;DHT22;13600;50.816;4.416;2023-11-21T09:05:39;12.60;99.90
25753;DHT22;13600;50.816;4.416;2023-11-21T09:08:05;12.50;99.90
25753;DHT22;13600;50.816;4.416;2023-11-21T09:10:33;12.60;99.90
25753;DHT22;13600;50.816;4.416;2023-11-21T09:13:01;12.60;99.90
25753;DHT22;13600;50.816;4.416;2023-11-21T09:15:27;12.60;99.90
25753;DHT22;13600;50.816;4.416;2023-11-21T09:17:53;12.70;99.90
25753;DHT22;13600;50.816;4.416;2023-11-21T09:20:18;12.70;99.90
25753;DHT22;13600;50.816;4.416;2023-11-21T09:22:47;12.70;99.90
25753;DHT22;13600;50.816;4.416;2023-11-21T09:25:12;12.80;99.90
25753;DHT22;13600;50.816;4.416;2023-11-21T09:27:38;12.80;99.90
25753;DHT22;13600;50.816;4.416;2023-11-21T09:30:04;12.70;99.90
25753;DHT22;13600;50.816;4.416;2023-11-21T09:32:31;12.60;99.90
25753;DHT22;13600;50.816;4.416;2023-11-21T09:34:57;12.70;99.90
25753;DHT22;13600;50.816;4.416;2023-11-21T09:37:24;12.70;99.90
25753;DHT22;13600;50.816;4.416;2023-11-21T09:39:50;12.70;99.90
25753;DHT22;13600;50.816;4.416;2023-11-21T09:42:25;12.60;99.90
25753;DHT22;13600;50.816;4.416;2023-11-21T09:44:54;12.60;99.90
25753;DHT22;13600;50.816;4.416;2023-11-21T09:47:24;12.60;99.90
25753;DHT22;13600;50.816;4.416;2023-11-21T09:49:50;12.60;99.90
25753;DHT22;13600;50.816;4.416;2023-11-21T09:52:27;12.70;99.90
25753;DHT22;13600;50.816;4.416;2023-11-21T09:54:54;12.80;99.90
25753;DHT22;13600;50.816;4.416;2023-11-21T09:57:23;12.70;99.90
25753;DHT22;13600;50.816;4.416;2023-11-21T09:59:53;12.70;99.90
25753;DHT22;13600;50.816;4.416;2023-11-21T10:02:26;12.70;99.90
25753;DHT22;13600;50.816;4.416;2023-11-21T10:04:52;12.80;99.90
25753;DHT22;13600;50.816;4.416;2023-11-21T10:07:19;12.80;99.90
25753;DHT22;13600;50.816;4.416;2023-11-21T10:09:47;12.90;99.90
25753;DHT22;13600;50.816;4.416;2023-11-21T10:12:15;13.00;99.90
25753;DHT22;13600;50.816;4.416;2023-11-21T10:14:42;12.90;99.90
25753;DHT22;13600;50.816;4.416;2023-11-21T10:17:10;12.90;99.90
25753;DHT22;13600;50.816;4.416;2023-11-21T10:19:39;13.00;99.90
25753;DHT22;13600;50.816;4.416;2023-11-21T10:22:05;13.00;99.90
25753;DHT22;13600;50.816;4.416;2023-11-21T10:24:32;13.00;99.90
25753;DHT22;13600;50.816;4.416;2023-11-21T10:26:59;12.60;99.90
25753;DHT22;13600;50.816;4.416;2023-11-21T10:29:31;12.20;99.90
25753;DHT22;13600;50.816;4.416;2023-11-21T10:32:02;12.20;99.90
25753;DHT22;13600;50.816;4.416;2023-11-21T10:34:28;12.30;99.90
25753;DHT22;13600;50.816;4.416;2023-11-21T10:36:54;12.30;99.90
25753;DHT22;13600;50.816;4.416;2023-11-21T10:39:24;12.50;99.90
25753;DHT22;13600;50.816;4.416;2023-11-21T10:41:56;12.50;99.90
25753;DHT22;13600;50.816;4.416;2023-11-21T10:44:21;12.70;99.90
25753;DHT22;13600;50.816;4.416;2023-11-21T10:46:53;12.80;99.90
25753;DHT22;13600;50.816;4.416;2023-11-21T10:49:26;12.90;99.90
25753;DHT22;13600;50.816;4.416;2023-11-21T10:51:54;13.00;99.90
25753;DHT22;13600;50.816;4.416;2023-11-21T10:54:24;13.00;99.90
25753;DHT22;13600;50.816;4.416;2023-11-21T10:56:57;13.20;99.90
25753;DHT22;13600;50.816;4.416;2023-11-21T10:59:23;13.50;99.90
25753;DHT22;13600;50.816;4.416;2023-11-21T11:01:51;13.60;99.90
25753;DHT22;13600;50.816;4.416;2023-11-21T11:04:22;13.80;99.90
25753;DHT22;13600;50.816;4.416;2023-11-21T11:07:02;13.70;99.90
25753;DHT22;13600;50.816;4.416;2023-11-21T11:09:31;13.80;99.90
25753;DHT22;13600;50.816;4.416;2023-11-21T11:11:59;13.70;99.90
25753;DHT22;13600;50.816;4.416;2023-11-21T11:14:25;13.80;99.90
25753;DHT22;13600;50.816;4.416;2023-11-21T11:16:54;13.60;99.90
25753;DHT22;13600;50.816;4.416;2023-11-21T11:19:21;13.80;99.90
25753;DHT22;13600;50.816;4.416;2023-11-21T11:29:56;13.40;99.90
25753;DHT22;13600;50.816;4.416;2023-11-21T11:35:04;13.40;99.90
25753;DHT22;13600;50.816;4.416;2023-11-21T11:37:33;13.20;99.90
25753;DHT22;13600;50.816;4.416;2023-11-21T11:39:59;13.40;99.90
25753;DHT22;13600;50.816;4.416;2023-11-21T11:42:26;13.50;99.90
25753;DHT22;13600;50.816;4.416;2023-11-21T11:44:53;13.50;99.90
25753;DHT22;13600;50.816;4.416;2023-11-21T11:54:59;14.10;99.90
25753;DHT22;13600;50.816;4.416;2023-11-21T11:57:25;14.10;99.90
25753;DHT22;13600;50.816;4.416;2023-11-21T12:02:53;14.00;99.90
25753;DHT22;13600;50.816;4.416;2023-11-21T12:05:20;13.60;99.90
25753;DHT22;13600;50.816;4.416;2023-11-21T12:07:54;13.60;99.90
25753;DHT22;13600;50.816;4.416;2023-11-21T12:10:46;13.50;99.90
25753;DHT22;13600;50.816;4.416;2023-11-21T12:13:14;13.40;99.90
25753;DHT22;13600;50.816;4.416;2023-11-21T12:15:40;13.40;99.90
25753;DHT22;13600;50.816;4.416;2023-11-21T12:18:07;13.20;99.90
25753;DHT22;13600;50.816;4.416;2023-11-21T12:20:33;13.30;99.90
25753;DHT22;13600;50.816;4.416;2023-11-21T12:23:04;13.30;99.90
25753;DHT22;13600;50.816;4.416;2023-11-21T12:25:31;13.10;99.90
25753;DHT22;13600;50.816;4.416;2023-11-21T12:27:59;13.10;99.90
25753;DHT22;13600;50.816;4.416;2023-11-21T12:30:26;13.60;99.90
25753;DHT22;13600;50.816;4.416;2023-11-21T12:32:57;13.60;99.90
25753;DHT22;13600;50.816;4.416;2023-11-21T12:35:30;13.60;99.90
25753;DHT22;13600;50.816;4.416;2023-11-21T12:37:56;13.60;99.90
25753;DHT22;13600;50.816;4.416;2023-11-21T12:40:25;13.40;99.90
25753;DHT22;13600;50.816;4.416;2023-11-21T12:42:56;13.40;99.90
25753;DHT22;13600;50.816;4.416;2023-11-21T12:45:25;13.10;99.90
25753;DHT22;13600;50.816;4.416;2023-11-21T12:48:04;12.90;99.90
25753;DHT22;13600;50.816;4.416;2023-11-21T12:50:34;12.80;99.90
25753;DHT22;13600;50.816;4.416;2023-11-21T12:53:11;12.80;99.90
25753;DHT22;13600;50.816;4.416;2023-11-21T12:55:38;12.80;99.90
25753;DHT22;13600;50.816;4.416;2023-11-21T12:58:05;12.80;99.90
25753;DHT22;13600;50.816;4.416;2023-11-21T13:00:40;13.00;99.90
25753;DHT22;13600;50.816;4.416;2023-11-21T13:03:08;13.10;99.90
25753;DHT22;13600;50.816;4.416;2023-11-21T13:05:40;13.00;99.90
25753;DHT22;13600;50.816;4.416;2023-11-21T13:08:11;13.20;99.90
25753;DHT22;13600;50.816;4.416;2023-11-21T13:10:44;13.30;99.90
25753;DHT22;13600;50.816;4.416;2023-11-21T13:13:13;13.30;99.90
25753;DHT22;13600;50.816;4.416;2023-11-21T13:15:52;13.10;99.90
25753;DHT22;13600;50.816;4.416;2023-11-21T13:18:27;12.80;99.90
25753;DHT22;13600;50.816;4.416;2023-11-21T13:20:54;12.50;99.90
25753;DHT22;13600;50.816;4.416;2023-11-21T13:23:21;12.60;99.90
25753;DHT22;13600;50.816;4.416;2023-11-21T13:25:49;12.60;99.90
25753;DHT22;13600;50.816;4.416;2023-11-21T13:28:15;12.60;99.90
25753;DHT22;13600;50.816;4.416;2023-11-21T13:30:41;12.60;99.90
25753;DHT22;13600;50.816;4.416;2023-11-21T13:33:08;12.60;99.90
25753;DHT22;13600;50.816;4.416;2023-11-21T13:35:38;12.60;99.90
25753;DHT22;13600;50.816;4.416;2023-11-21T13:38:11;12.60;99.90
25753;DHT22;13600;50.816;4.416;2023-11-21T13:40:48;12.70;99.90
25753;DHT22;13600;50.816;4.416;2023-11-21T13:43:16;12.40;99.90
25753;DHT22;13600;50.816;4.416;2023-11-21T13:45:43;12.30;99.90
25753;DHT22;13600;50.816;4.416;2023-11-21T13:48:11;12.50;99.90
25753;DHT22;13600;50.816;4.416;2023-11-21T13:50:39;12.40;99.90
25753;DHT22;13600;50.816;4.416;2023-11-21T13:53:11;12.30;99.90
25753;DHT22;13600;50.816;4.416;2023-11-21T13:55:54;12.70;99.90
25753;DHT22;13600;50.816;4.416;2023-11-21T13:58:21;12.70;99.90
25753;DHT22;13600;50.816;4.416;2023-11-21T14:01:06;12.80;99.90
25753;DHT22;13600;50.816;4.416;2023-11-21T14:03:38;12.90;99.90
25753;DHT22;13600;50.816;4.416;2023-11-21T14:06:15;13.20;99.90
25753;DHT22;13600;50.816;4.416;2023-11-21T14:08:48;13.20;99.90
25753;DHT22;13600;50.816;4.416;2023-11-21T14:11:14;13.00;99.90
25753;DHT22;13600;50.816;4.416;2023-11-21T14:13:43;13.20;99.90
25753;DHT22;13600;50.816;4.416;2023-11-21T14:16:15;13.10;99.90
25753;DHT22;13600;50.816;4.416;2023-11-21T14:18:42;12.90;99.90
25753;DHT22;13600;50.816;4.416;2023-11-21T14:21:19;12.90;99.90
25753;DHT22;13600;50.816;4.416;2023-11-21T14:23:44;13.10;99.90
25753;DHT22;13600;50.816;4.416;2023-11-21T14:26:11;13.00;99.90
25753;DHT22;13600;50.816;4.416;2023-11-21T14:28:41;12.80;99.90
25753;DHT22;13600;50.816;4.416;2023-11-21T14:31:08;12.60;99.90
25753;DHT22;13600;50.816;4.416;2023-11-21T14:33:39;12.50;99.90
25753;DHT22;13600;50.816;4.416;2023-11-21T14:36:06;12.70;99.90
25753;DHT22;13600;50.816;4.416;2023-11-21T14:38:34;12.70;99.90
25753;DHT22;13600;50.816;4.416;2023-11-21T14:40:59;12.50;99.90
25753;DHT22;13600;50.816;4.416;2023-11-21T14:43:25;12.30;99.90
25753;DHT22;13600;50.816;4.416;2023-11-21T14:45:55;12.30;99.90
25753;DHT22;13600;50.816;4.416;2023-11-21T14:48:21;12.30;99.90
25753;DHT22;13600;50.816;4.416;2023-11-21T14:51:06;12.60;99.90
25753;DHT22;13600;50.816;4.416;2023-11-21T14:53:51;12.70;99.90
25753;DHT22;13600;50.816;4.416;2023-11-21T14:56:36;12.60;99.90
25753;DHT22;13600;50.816;4.416;2023-11-21T14:59:05;12.50;99.90
25753;DHT22;13600;50.816;4.416;2023-11-21T15:01:41;12.40;99.90
25753;DHT22;13600;50.816;4.416;2023-11-21T15:04:24;12.10;99.90
25753;DHT22;13600;50.816;4.416;2023-11-21T15:07:04;11.90;99.90
25753;DHT22;13600;50.816;4.416;2023-11-21T15:09:30;11.90;99.90
25753;DHT22;13600;50.816;4.416;2023-11-21T15:12:02;11.80;99.90
25753;DHT22;13600;50.816;4.416;2023-11-21T15:14:48;11.90;99.90
25753;DHT22;13600;50.816;4.416;2023-11-21T15:17:17;11.80;99.90
25753;DHT22;13600;50.816;4.416;2023-11-21T15:19:54;12.00;99.90
25753;DHT22;13600;50.816;4.416;2023-11-21T15:22:20;12.00;99.90
25753;DHT22;13600;50.816;4.416;2023-11-21T15:24:46;11.90;99.90
25753;DHT22;13600;50.816;4.416;2023-11-21T15:27:16;11.90;99.90
25753;DHT22;13600;50.816;4.416;2023-11-21T15:29:43;11.90;99.90
25753;DHT22;13600;50.816;4.416;2023-11-21T15:32:09;11.90;99.90
25753;DHT22;13600;50.816;4.416;2023-11-21T15:34:35;12.00;99.90
25753;DHT22;13600;50.816;4.416;2023-11-21T15:37:02;11.90;99.90
25753;DHT22;13600;50.816;4.416;2023-11-21T15:39:29;11.90;99.90
25753;DHT22;13600;50.816;4.416;2023-11-21T15:41:59;12.00;99.90
25753;DHT22;13600;50.816;4.416;2023-11-21T15:44:28;12.10;99.90
25753;DHT22;13600;50.816;4.416;2023-11-21T15:46:57;12.10;99.90
25753;DHT22;13600;50.816;4.416;2023-11-21T15:49:23;12.10;99.90
25753;DHT22;13600;50.816;4.416;2023-11-21T15:51:49;11.90;99.90
25753;DHT22;13600;50.816;4.416;2023-11-21T15:54:24;12.10;99.90